Terminal Aerodrome Forecast
Issued by NWS

Home | Current Version | Previous Version | Text Only | Print | Product List | Glossary On
Versions: 1 2 3 4 5 6 7 8 9 10 11 12 13 14 15 16 17 18 19 20 21 22 23 24 25 26 27 28 29 30
137
FTUS43 KLSX 031130
TAFUIN
TAF
KUIN 031130Z 0312/0412 30005KT P6SM SCT070
     FM040000 25006KT P6SM SCT060
     FM040800 27010KT P6SM VCSH BKN060 WS010/29040KT
     FM041000 29010KT P6SM SCT250=

USA.gov is the U.S. government's official web portal to all federal, state and local government web resources and services.